sensor_id;sensor_type;location;lat;lon;timestamp;pressure;altitude;pressure_sealevel;temperature;humidity
50250;BME280;36133;42.522;27.456;2022-11-20T00:02:21;101049.75;;;22.88;58.25
50250;BME280;36133;42.522;27.456;2022-11-20T00:04:47;101028.47;;;23.05;57.31
50250;BME280;36133;42.522;27.456;2022-11-20T00:07:12;101027.00;;;22.71;57.85
50250;BME280;36133;42.522;27.456;2022-11-20T00:09:38;100926.72;;;22.57;56.90
50250;BME280;36133;42.522;27.456;2022-11-20T00:12:03;100814.09;;;21.59;57.77
50250;BME280;36133;42.522;27.456;2022-11-20T00:14:29;100939.34;;;22.04;57.95
50250;BME280;36133;42.522;27.456;2022-11-20T00:16:54;100867.47;;;21.68;58.15
50250;BME280;36133;42.522;27.456;2022-11-20T00:19:20;100832.69;;;21.30;58.22
50250;BME280;36133;42.522;27.456;2022-11-20T00:21:45;100889.06;;;22.30;56.81
50250;BME280;36133;42.522;27.456;2022-11-20T00:24:12;100992.88;;;22.72;56.80
50250;BME280;36133;42.522;27.456;2022-11-20T00:26:37;101002.13;;;22.61;57.13
50250;BME280;36133;42.522;27.456;2022-11-20T00:29:03;101011.13;;;22.78;57.12
50250;BME280;36133;42.522;27.456;2022-11-20T00:31:30;100747.72;;;20.96;57.50
50250;BME280;36133;42.522;27.456;2022-11-20T00:33:56;101053.81;;;22.80;57.85
50250;BME280;36133;42.522;27.456;2022-11-20T00:36:24;100755.41;;;20.77;57.97
50250;BME280;36133;42.522;27.456;2022-11-20T00:38:54;101051.25;;;22.74;58.31
50250;BME280;36133;42.522;27.456;2022-11-20T00:41:21;100945.50;;;22.11;58.03
50250;BME280;36133;42.522;27.456;2022-11-20T00:43:46;100978.66;;;22.04;58.26
50250;BME280;36133;42.522;27.456;2022-11-20T00:46:17;101003.84;;;22.40;58.40
50250;BME280;36133;42.522;27.456;2022-11-20T00:48:43;101035.75;;;22.41;58.54
50250;BME280;36133;42.522;27.456;2022-11-20T00:51:11;101039.38;;;22.41;59.23
50250;BME280;36133;42.522;27.456;2022-11-20T00:53:38;100883.66;;;21.43;59.02
50250;BME280;36133;42.522;27.456;2022-11-20T00:56:05;100895.81;;;21.47;59.03
50250;BME280;36133;42.522;27.456;2022-11-20T00:58:33;100975.03;;;21.99;58.60
50250;BME280;36133;42.522;27.456;2022-11-20T01:01:05;100910.50;;;21.35;59.19
50250;BME280;36133;42.522;27.456;2022-11-20T01:03:32;100871.78;;;21.37;58.87
50250;BME280;36133;42.522;27.456;2022-11-20T01:06:16;101029.53;;;22.23;58.71
50250;BME280;36133;42.522;27.456;2022-11-20T01:08:42;100909.72;;;21.40;58.91
50250;BME280;36133;42.522;27.456;2022-11-20T01:11:22;100939.81;;;21.52;59.15
50250;BME280;36133;42.522;27.456;2022-11-20T01:13:49;101003.03;;;21.74;60.17
50250;BME280;36133;42.522;27.456;2022-11-20T01:16:17;100878.97;;;21.21;59.20
50250;BME280;36133;42.522;27.456;2022-11-20T01:18:46;100915.47;;;21.39;59.25
50250;BME280;36133;42.522;27.456;2022-11-20T01:21:17;101013.75;;;21.75;59.90
50250;BME280;36133;42.522;27.456;2022-11-20T01:23:43;100686.09;;;20.27;58.64
50250;BME280;36133;42.522;27.456;2022-11-20T01:26:12;100985.50;;;22.02;58.94
50250;BME280;36133;42.522;27.456;2022-11-20T01:28:39;100837.53;;;21.23;58.61
50250;BME280;36133;42.522;27.456;2022-11-20T01:31:14;101010.53;;;22.22;58.78
50250;BME280;36133;42.522;27.456;2022-11-20T01:33:40;100798.94;;;20.91;58.47
50250;BME280;36133;42.522;27.456;2022-11-20T01:36:07;100831.03;;;21.29;57.92
50250;BME280;36133;42.522;27.456;2022-11-20T01:38:32;100948.63;;;21.98;58.28
50250;BME280;36133;42.522;27.456;2022-11-20T01:40:58;100804.50;;;20.96;58.68
50250;BME280;36133;42.522;27.456;2022-11-20T01:43:24;100967.78;;;22.09;58.22
50250;BME280;36133;42.522;27.456;2022-11-20T01:46:18;101007.19;;;21.98;58.55
50250;BME280;36133;42.522;27.456;2022-11-20T01:51:40;100990.22;;;22.28;57.67
50250;BME280;36133;42.522;27.456;2022-11-20T01:54:23;100835.53;;;21.18;58.29
50250;BME280;36133;42.522;27.456;2022-11-20T01:56:51;100971.03;;;22.06;58.41
50250;BME280;36133;42.522;27.456;2022-11-20T01:59:19;100841.28;;;21.33;57.68
50250;BME280;36133;42.522;27.456;2022-11-20T02:01:46;100983.97;;;22.33;57.93
50250;BME280;36133;42.522;27.456;2022-11-20T02:04:13;100950.44;;;21.87;57.93
50250;BME280;36133;42.522;27.456;2022-11-20T02:06:51;100958.84;;;22.02;58.03
50250;BME280;36133;42.522;27.456;2022-11-20T02:09:18;100923.03;;;21.70;58.05
50250;BME280;36133;42.522;27.456;2022-11-20T02:11:44;100814.16;;;21.20;57.47
50250;BME280;36133;42.522;27.456;2022-11-20T02:14:10;100971.28;;;21.83;58.45
50250;BME280;36133;42.522;27.456;2022-11-20T02:16:54;100975.00;;;21.55;59.23
50250;BME280;36133;42.522;27.456;2022-11-20T02:19:31;100923.91;;;21.54;58.09
50250;BME280;36133;42.522;27.456;2022-11-20T02:22:19;100894.63;;;21.21;58.70
50250;BME280;36133;42.522;27.456;2022-11-20T02:24:48;100997.88;;;22.21;57.51
50250;BME280;36133;42.522;27.456;2022-11-20T02:27:16;100891.41;;;21.46;57.60
50250;BME280;36133;42.522;27.456;2022-11-20T02:32:21;100990.38;;;21.94;58.49
50250;BME280;36133;42.522;27.456;2022-11-20T02:34:47;100839.34;;;21.17;57.89
50250;BME280;36133;42.522;27.456;2022-11-20T02:37:13;100993.88;;;21.90;58.45
50250;BME280;36133;42.522;27.456;2022-11-20T02:39:40;100937.00;;;21.47;58.81
50250;BME280;36133;42.522;27.456;2022-11-20T02:42:05;100985.31;;;21.86;58.47
50250;BME280;36133;42.522;27.456;2022-11-20T02:44:31;100992.22;;;21.89;58.52
50250;BME280;36133;42.522;27.456;2022-11-20T02:46:58;100988.91;;;21.87;58.47
50250;BME280;36133;42.522;27.456;2022-11-20T02:49:24;100988.13;;;21.91;58.29
50250;BME280;36133;42.522;27.456;2022-11-20T02:51:49;100988.50;;;22.00;58.02
50250;BME280;36133;42.522;27.456;2022-11-20T02:54:15;100912.00;;;21.26;58.54
50250;BME280;36133;42.522;27.456;2022-11-20T02:56:40;100966.91;;;21.65;58.18
50250;BME280;36133;42.522;27.456;2022-11-20T02:59:06;100996.84;;;21.83;58.58
50250;BME280;36133;42.522;27.456;2022-11-20T03:01:32;100998.88;;;21.71;58.43
50250;BME280;36133;42.522;27.456;2022-11-20T03:03:57;100996.28;;;21.81;58.51
50250;BME280;36133;42.522;27.456;2022-11-20T03:06:23;100811.97;;;20.45;58.79
50250;BME280;36133;42.522;27.456;2022-11-20T03:08:48;101029.44;;;21.97;58.03
50250;BME280;36133;42.522;27.456;2022-11-20T03:11:14;100833.31;;;20.76;58.09
50250;BME280;36133;42.522;27.456;2022-11-20T03:13:39;100873.25;;;21.06;58.19
50250;BME280;36133;42.522;27.456;2022-11-20T03:16:07;100890.38;;;21.13;58.05
50250;BME280;36133;42.522;27.456;2022-11-20T03:18:33;100883.59;;;20.99;58.32
50250;BME280;36133;42.522;27.456;2022-11-20T03:20:58;101003.50;;;21.49;58.88
50250;BME280;36133;42.522;27.456;2022-11-20T03:23:24;101009.31;;;21.69;58.34
50250;BME280;36133;42.522;27.456;2022-11-20T03:25:50;100770.66;;;20.35;58.30
50250;BME280;36133;42.522;27.456;2022-11-20T03:28:15;100929.91;;;21.12;58.93
50250;BME280;36133;42.522;27.456;2022-11-20T03:30:40;100823.38;;;20.54;58.74
50250;BME280;36133;42.522;27.456;2022-11-20T03:33:06;100800.75;;;20.63;58.05
50250;BME280;36133;42.522;27.456;2022-11-20T03:35:31;100925.41;;;21.06;58.74
50250;BME280;36133;42.522;27.456;2022-11-20T03:37:57;100933.38;;;21.24;58.58
50250;BME280;36133;42.522;27.456;2022-11-20T03:40:23;101003.47;;;21.65;59.11
50250;BME280;36133;42.522;27.456;2022-11-20T03:42:48;100982.09;;;21.51;58.89
50250;BME280;36133;42.522;27.456;2022-11-20T03:45:18;100960.97;;;21.51;58.42
50250;BME280;36133;42.522;27.456;2022-11-20T03:47:44;100984.94;;;21.78;58.37
50250;BME280;36133;42.522;27.456;2022-11-20T03:50:12;101008.91;;;21.60;59.25
50250;BME280;36133;42.522;27.456;2022-11-20T03:52:38;100963.81;;;21.40;59.16
50250;BME280;36133;42.522;27.456;2022-11-20T03:55:05;100887.84;;;20.90;58.70
50250;BME280;36133;42.522;27.456;2022-11-20T03:57:31;100981.38;;;21.39;59.00
50250;BME280;36133;42.522;27.456;2022-11-20T03:59:56;100933.59;;;21.40;58.66
50250;BME280;36133;42.522;27.456;2022-11-20T04:02:22;100970.59;;;21.54;59.15
50250;BME280;36133;42.522;27.456;2022-11-20T04:04:47;100930.94;;;21.45;58.47
50250;BME280;36133;42.522;27.456;2022-11-20T04:07:13;100770.34;;;20.14;58.90
50250;BME280;36133;42.522;27.456;2022-11-20T04:09:38;100831.22;;;20.84;58.87
50250;BME280;36133;42.522;27.456;2022-11-20T04:12:04;100819.13;;;20.46;59.34
50250;BME280;36133;42.522;27.456;2022-11-20T04:14:29;100919.16;;;21.27;59.02
50250;BME280;36133;42.522;27.456;2022-11-20T04:16:55;100919.44;;;21.09;59.45
50250;BME280;36133;42.522;27.456;2022-11-20T04:19:20;100798.16;;;20.57;58.83
50250;BME280;36133;42.522;27.456;2022-11-20T04:21:46;100925.94;;;21.42;59.02
50250;BME280;36133;42.522;27.456;2022-11-20T04:24:11;100849.16;;;20.91;58.92
50250;BME280;36133;42.522;27.456;2022-11-20T04:26:37;100833.94;;;20.62;59.39
50250;BME280;36133;42.522;27.456;2022-11-20T04:29:03;100696.25;;;20.09;58.79
50250;BME280;36133;42.522;27.456;2022-11-20T04:31:32;100915.16;;;21.35;59.11
50250;BME280;36133;42.522;27.456;2022-11-20T04:34:03;100779.38;;;20.32;59.22
50250;BME280;36133;42.522;27.456;2022-11-20T04:36:29;100811.38;;;20.76;58.66
50250;BME280;36133;42.522;27.456;2022-11-20T04:39:00;100969.47;;;21.50;59.40
50250;BME280;36133;42.522;27.456;2022-11-20T04:41:29;100890.75;;;21.00;59.35
50250;BME280;36133;42.522;27.456;2022-11-20T04:43:57;100885.19;;;21.17;59.40
50250;BME280;36133;42.522;27.456;2022-11-20T04:46:26;100941.72;;;21.51;59.06
50250;BME280;36133;42.522;27.456;2022-11-20T04:48:52;100892.81;;;21.10;59.48
50250;BME280;36133;42.522;27.456;2022-11-20T04:51:18;100947.81;;;21.75;58.77
50250;BME280;36133;42.522;27.456;2022-11-20T04:53:43;100816.84;;;20.76;58.77
50250;BME280;36133;42.522;27.456;2022-11-20T04:56:11;100933.59;;;21.40;59.57
50250;BME280;36133;42.522;27.456;2022-11-20T04:58:38;100956.25;;;21.47;59.35
50250;BME280;36133;42.522;27.456;2022-11-20T05:01:23;100969.59;;;21.60;59.55
50250;BME280;36133;42.522;27.456;2022-11-20T05:03:49;100955.34;;;21.63;59.55
50250;BME280;36133;42.522;27.456;2022-11-20T05:06:17;100958.16;;;21.46;59.88
50250;BME280;36133;42.522;27.456;2022-11-20T05:08:43;100930.94;;;21.45;59.55
50250;BME280;36133;42.522;27.456;2022-11-20T05:11:10;100838.44;;;20.90;59.34
50250;BME280;36133;42.522;27.456;2022-11-20T05:13:37;100933.63;;;21.23;60.21
50250;BME280;36133;42.522;27.456;2022-11-20T05:16:07;100958.75;;;21.31;60.33
50250;BME280;36133;42.522;27.456;2022-11-20T05:18:34;100863.06;;;20.85;59.86
50250;BME280;36133;42.522;27.456;2022-11-20T05:21:00;100969.63;;;21.43;60.02
50250;BME280;36133;42.522;27.456;2022-11-20T05:23:26;100802.75;;;20.51;59.80
50250;BME280;36133;42.522;27.456;2022-11-20T05:25:55;100960.97;;;21.51;59.72
50250;BME280;36133;42.522;27.456;2022-11-20T05:28:22;100963.31;;;21.43;60.29
50250;BME280;36133;42.522;27.456;2022-11-20T05:30:48;100915.84;;;21.25;59.52
50250;BME280;36133;42.522;27.456;2022-11-20T05:33:14;100712.44;;;20.28;58.85
50250;BME280;36133;42.522;27.456;2022-11-20T05:35:40;100941.59;;;21.41;59.73
50250;BME280;36133;42.522;27.456;2022-11-20T05:38:05;100956.66;;;21.39;59.57
50250;BME280;36133;42.522;27.456;2022-11-20T05:40:31;100944.59;;;21.40;59.77
50250;BME280;36133;42.522;27.456;2022-11-20T05:42:56;100898.41;;;21.37;59.20
50250;BME280;36133;42.522;27.456;2022-11-20T05:45:22;100937.63;;;21.54;59.47
50250;BME280;36133;42.522;27.456;2022-11-20T05:47:47;100807.81;;;20.42;59.56
50250;BME280;36133;42.522;27.456;2022-11-20T05:50:14;100931.38;;;21.37;59.82
50250;BME280;36133;42.522;27.456;2022-11-20T05:52:40;100777.88;;;20.74;59.39
50250;BME280;36133;42.522;27.456;2022-11-20T05:55:06;100646.44;;;19.96;59.11
50250;BME280;36133;42.522;27.456;2022-11-20T05:57:31;100686.63;;;20.24;59.02
50250;BME280;36133;42.522;27.456;2022-11-20T05:59:57;100814.56;;;20.90;59.21
50250;BME280;36133;42.522;27.456;2022-11-20T06:02:22;100738.81;;;20.67;58.89
50250;BME280;36133;42.522;27.456;2022-11-20T06:04:48;100700.97;;;20.47;59.64
50250;BME280;36133;42.522;27.456;2022-11-20T06:07:14;100762.56;;;20.78;58.83
50250;BME280;36133;42.522;27.456;2022-11-20T06:09:39;100905.50;;;21.76;58.72
50250;BME280;36133;42.522;27.456;2022-11-20T06:12:05;100678.28;;;20.35;58.60
50250;BME280;36133;42.522;27.456;2022-11-20T06:14:31;100924.22;;;21.79;58.57
50250;BME280;36133;42.522;27.456;2022-11-20T06:16:56;100646.19;;;20.14;58.68
50250;BME280;36133;42.522;27.456;2022-11-20T06:19:22;100719.47;;;20.40;59.02
50250;BME280;36133;42.522;27.456;2022-11-20T06:21:48;100897.91;;;21.61;58.91
50250;BME280;36133;42.522;27.456;2022-11-20T06:24:14;100955.53;;;21.78;58.99
50250;BME280;36133;42.522;27.456;2022-11-20T06:26:40;100951.88;;;22.16;57.58
50250;BME280;36133;42.522;27.456;2022-11-20T06:29:06;100935.91;;;22.40;56.12
50250;BME280;36133;42.522;27.456;2022-11-20T06:31:31;100882.44;;;21.77;57.22
50250;BME280;36133;42.522;27.456;2022-11-20T06:34:05;100846.97;;;21.76;57.06
50250;BME280;36133;42.522;27.456;2022-11-20T06:36:34;100814.91;;;21.32;57.66
50250;BME280;36133;42.522;27.456;2022-11-20T06:39:00;100828.41;;;21.61;57.44
50250;BME280;36133;42.522;27.456;2022-11-20T06:41:26;100921.59;;;22.11;57.12
50250;BME280;36133;42.522;27.456;2022-11-20T06:43:53;100916.09;;;22.70;55.93
50250;BME280;36133;42.522;27.456;2022-11-20T06:46:19;100922.16;;;22.13;56.72
50250;BME280;36133;42.522;27.456;2022-11-20T06:48:45;100942.28;;;22.46;56.74
50250;BME280;36133;42.522;27.456;2022-11-20T06:51:11;100974.38;;;22.35;56.68
50250;BME280;36133;42.522;27.456;2022-11-20T06:53:37;100804.16;;;22.07;55.97
50250;BME280;36133;42.522;27.456;2022-11-20T06:56:03;100918.72;;;22.28;56.41
50250;BME280;36133;42.522;27.456;2022-11-20T06:58:30;100892.59;;;22.58;55.39
50250;BME280;36133;42.522;27.456;2022-11-20T07:01:08;100813.94;;;21.71;56.25
50250;BME280;36133;42.522;27.456;2022-11-20T07:03:34;100936.91;;;22.56;56.42
50250;BME280;36133;42.522;27.456;2022-11-20T07:06:01;100882.03;;;21.90;56.68
50250;BME280;36133;42.522;27.456;2022-11-20T07:08:30;100891.75;;;22.25;55.70
50250;BME280;36133;42.522;27.456;2022-11-20T07:10:58;100870.00;;;22.18;55.95
50250;BME280;36133;42.522;27.456;2022-11-20T07:13:25;100862.19;;;21.83;55.92
50250;BME280;36133;42.522;27.456;2022-11-20T07:15:51;100968.00;;;22.89;55.25
50250;BME280;36133;42.522;27.456;2022-11-20T07:18:16;100834.97;;;22.09;55.11
50250;BME280;36133;42.522;27.456;2022-11-20T07:20:41;100757.75;;;21.56;55.24
50250;BME280;36133;42.522;27.456;2022-11-20T07:23:07;100896.41;;;22.19;55.57
50250;BME280;36133;42.522;27.456;2022-11-20T07:25:33;100945.78;;;22.95;55.02
50250;BME280;36133;42.522;27.456;2022-11-20T07:27:59;100778.28;;;21.49;55.56
50250;BME280;36133;42.522;27.456;2022-11-20T07:30:27;100967.56;;;22.70;55.42
50250;BME280;36133;42.522;27.456;2022-11-20T07:32:54;100991.56;;;23.06;54.49
50250;BME280;36133;42.522;27.456;2022-11-20T07:35:21;100913.97;;;22.45;54.57
50250;BME280;36133;42.522;27.456;2022-11-20T07:37:48;100664.38;;;21.07;54.31
50250;BME280;36133;42.522;27.456;2022-11-20T07:40:19;100956.50;;;22.97;54.47
50250;BME280;36133;42.522;27.456;2022-11-20T07:42:52;100716.50;;;21.51;54.12
50250;BME280;36133;42.522;27.456;2022-11-20T07:45:19;100808.59;;;22.13;54.04
50250;BME280;36133;42.522;27.456;2022-11-20T07:47:46;100769.47;;;21.74;54.24
50250;BME280;36133;42.522;27.456;2022-11-20T07:50:12;100890.03;;;22.78;53.48
50250;BME280;36133;42.522;27.456;2022-11-20T07:52:38;100713.88;;;21.34;54.28
50250;BME280;36133;42.522;27.456;2022-11-20T07:55:04;100759.72;;;21.61;54.13
50250;BME280;36133;42.522;27.456;2022-11-20T07:57:30;100976.47;;;22.82;53.96
50250;BME280;36133;42.522;27.456;2022-11-20T07:59:56;100553.63;;;20.92;52.40
50250;BME280;36133;42.522;27.456;2022-11-20T08:02:21;100552.09;;;20.74;53.02
50250;BME280;36133;42.522;27.456;2022-11-20T08:04:47;100548.53;;;20.52;53.34
50250;BME280;36133;42.522;27.456;2022-11-20T08:07:13;100865.09;;;22.58;53.36
50250;BME280;36133;42.522;27.456;2022-11-20T08:09:38;100986.09;;;23.12;53.56
50250;BME280;36133;42.522;27.456;2022-11-20T08:12:04;100576.41;;;20.92;52.48
50250;BME280;36133;42.522;27.456;2022-11-20T08:14:48;100723.53;;;21.69;52.24
50250;BME280;36133;42.522;27.456;2022-11-20T08:17:14;100678.75;;;21.42;52.87
50250;BME280;36133;42.522;27.456;2022-11-20T08:19:39;100584.59;;;20.60;53.09
50250;BME280;36133;42.522;27.456;2022-11-20T08:22:08;100785.50;;;22.09;52.69
50250;BME280;36133;42.522;27.456;2022-11-20T08:24:34;100651.59;;;21.18;52.76
50250;BME280;36133;42.522;27.456;2022-11-20T08:27:00;100791.25;;;22.07;53.10
50250;BME280;36133;42.522;27.456;2022-11-20T08:29:26;100946.56;;;22.91;53.08
50250;BME280;36133;42.522;27.456;2022-11-20T08:31:52;100922.78;;;22.79;52.82
50250;BME280;36133;42.522;27.456;2022-11-20T08:34:18;100953.09;;;23.17;52.83
50250;BME280;36133;42.522;27.456;2022-11-20T08:36:44;100892.13;;;22.66;52.99
50250;BME280;36133;42.522;27.456;2022-11-20T08:39:20;100585.72;;;21.18;52.16
50250;BME280;36133;42.522;27.456;2022-11-20T08:41:46;100665.06;;;21.20;52.75
50250;BME280;36133;42.522;27.456;2022-11-20T08:44:11;100838.88;;;22.50;52.52
50250;BME280;36133;42.522;27.456;2022-11-20T08:46:40;101018.13;;;23.60;52.56
50250;BME280;36133;42.522;27.456;2022-11-20T08:49:08;100822.38;;;22.50;52.21
50250;BME280;36133;42.522;27.456;2022-11-20T08:51:37;100919.69;;;23.03;51.89
50250;BME280;36133;42.522;27.456;2022-11-20T08:54:03;100511.16;;;20.45;52.21
50250;BME280;36133;42.522;27.456;2022-11-20T08:56:29;100558.75;;;21.10;51.59
50250;BME280;36133;42.522;27.456;2022-11-20T08:58:54;100512.00;;;20.46;52.33
50250;BME280;36133;42.522;27.456;2022-11-20T09:01:22;100922.00;;;23.21;52.08
50250;BME280;36133;42.522;27.456;2022-11-20T09:03:49;100980.16;;;24.40;50.55
50250;BME280;36133;42.522;27.456;2022-11-20T09:06:15;100991.63;;;24.11;50.89
50250;BME280;36133;42.522;27.456;2022-11-20T09:08:41;100850.09;;;23.18;51.25
50250;BME280;36133;42.522;27.456;2022-11-20T09:11:07;100994.81;;;24.81;49.72
50250;BME280;36133;42.522;27.456;2022-11-20T09:13:34;100803.81;;;22.67;51.61
50250;BME280;36133;42.522;27.456;2022-11-20T09:16:06;100866.78;;;23.53;50.80
50250;BME280;36133;42.522;27.456;2022-11-20T09:18:34;100893.25;;;23.54;50.88
50250;BME280;36133;42.522;27.456;2022-11-20T09:21:03;100830.78;;;23.13;51.10
50250;BME280;36133;42.522;27.456;2022-11-20T09:23:37;100645.28;;;22.09;51.03
50250;BME280;36133;42.522;27.456;2022-11-20T09:26:10;100823.09;;;23.15;50.73
50250;BME280;36133;42.522;27.456;2022-11-20T09:28:37;100831.25;;;22.94;50.66
50250;BME280;36133;42.522;27.456;2022-11-20T09:31:19;100670.03;;;22.14;50.90
50250;BME280;36133;42.522;27.456;2022-11-20T09:33:50;100507.47;;;21.95;49.23
50250;BME280;36133;42.522;27.456;2022-11-20T09:36:16;100706.13;;;22.70;50.06
50250;BME280;36133;42.522;27.456;2022-11-20T09:38:44;100788.50;;;23.39;49.97
50250;BME280;36133;42.522;27.456;2022-11-20T09:44:28;100956.19;;;24.96;49.11
50250;BME280;36133;42.522;27.456;2022-11-20T09:47:11;100758.53;;;23.68;48.88
50250;BME280;36133;42.522;27.456;2022-11-20T09:50:10;100947.06;;;24.50;49.79
50250;BME280;36133;42.522;27.456;2022-11-20T09:55:45;100934.53;;;25.49;47.81
50250;BME280;36133;42.522;27.456;2022-11-20T09:58:39;100935.44;;;25.14;47.93
50250;BME280;36133;42.522;27.456;2022-11-20T10:06:32;100926.84;;;24.24;49.77
50250;BME280;36133;42.522;27.456;2022-11-20T10:09:14;100869.63;;;25.31;47.29
50250;BME280;36133;42.522;27.456;2022-11-20T10:17:21;100880.72;;;25.26;47.02
50250;BME280;36133;42.522;27.456;2022-11-20T10:25:56;100714.69;;;24.48;46.28
50250;BME280;36133;42.522;27.456;2022-11-20T10:31:03;100917.25;;;24.77;48.09
50250;BME280;36133;42.522;27.456;2022-11-20T10:33:36;100433.63;;;21.56;49.24
50250;BME280;36133;42.522;27.456;2022-11-20T10:36:12;100913.63;;;25.12;47.51
50250;BME280;36133;42.522;27.456;2022-11-20T10:38:43;100433.69;;;22.44;46.69
50250;BME280;36133;42.522;27.456;2022-11-20T10:41:24;100409.03;;;21.82;48.59
50250;BME280;36133;42.522;27.456;2022-11-20T10:46:40;100903.97;;;24.59;48.77
50250;BME280;36133;42.522;27.456;2022-11-20T10:49:14;100725.38;;;23.27;49.13
50250;BME280;36133;42.522;27.456;2022-11-20T10:51:57;100897.38;;;24.55;48.98
50250;BME280;36133;42.522;27.456;2022-11-20T10:57:29;100418.84;;;21.20;49.62
50250;BME280;36133;42.522;27.456;2022-11-20T11:00:06;100374.09;;;20.83;50.26
50250;BME280;36133;42.522;27.456;2022-11-20T11:07:58;100403.59;;;21.02;50.26
50250;BME280;36133;42.522;27.456;2022-11-20T11:10:32;100550.47;;;21.74;50.73
50250;BME280;36133;42.522;27.456;2022-11-20T11:13:00;100721.88;;;22.37;51.88
50250;BME280;36133;42.522;27.456;2022-11-20T11:17:53;100843.06;;;22.90;51.86
50250;BME280;36133;42.522;27.456;2022-11-20T11:20:23;100513.09;;;20.99;51.95
50250;BME280;36133;42.522;27.456;2022-11-20T11:22:57;100370.03;;;20.53;51.19
50250;BME280;36133;42.522;27.456;2022-11-20T11:25:36;100388.69;;;20.56;51.50
50250;BME280;36133;42.522;27.456;2022-11-20T11:30:44;100694.53;;;22.63;50.91
50250;BME280;36133;42.522;27.456;2022-11-20T11:33:12;100557.09;;;21.41;51.64
50250;BME280;36133;42.522;27.456;2022-11-20T11:35:49;100664.06;;;21.90;51.93
50250;BME280;36133;42.522;27.456;2022-11-20T11:38:22;100879.09;;;23.35;51.61
50250;BME280;36133;42.522;27.456;2022-11-20T11:40:54;100590.13;;;21.88;51.40
50250;BME280;36133;42.522;27.456;2022-11-20T11:43:26;100407.31;;;20.49;51.10
50250;BME280;36133;42.522;27.456;2022-11-20T11:46:28;100882.75;;;23.51;51.32
50250;BME280;36133;42.522;27.456;2022-11-20T11:49:16;100652.84;;;22.34;51.13
50250;BME280;36133;42.522;27.456;2022-11-20T11:52:00;100884.19;;;23.59;50.97
50250;BME280;36133;42.522;27.456;2022-11-20T11:54:45;100881.25;;;23.96;50.54
50250;BME280;36133;42.522;27.456;2022-11-20T12:02:31;100825.41;;;23.48;51.00
50250;BME280;36133;42.522;27.456;2022-11-20T12:08:18;100852.41;;;23.41;51.75
50250;BME280;36133;42.522;27.456;2022-11-20T12:13:53;100855.59;;;23.80;51.00
50250;BME280;36133;42.522;27.456;2022-11-20T12:16:27;100345.75;;;20.40;51.10
50250;BME280;36133;42.522;27.456;2022-11-20T12:18:53;100456.56;;;20.98;51.66
50250;BME280;36133;42.522;27.456;2022-11-20T12:44:32;100370.81;;;21.23;49.27
50250;BME280;36133;42.522;27.456;2022-11-20T12:50:11;100815.84;;;23.61;50.10
50250;BME280;36133;42.522;27.456;2022-11-20T12:52:51;100577.72;;;22.28;49.87
50250;BME280;36133;42.522;27.456;2022-11-20T13:01:02;100374.28;;;21.08;49.18
50250;BME280;36133;42.522;27.456;2022-11-20T13:03:54;100431.09;;;21.45;49.11
50250;BME280;36133;42.522;27.456;2022-11-20T13:06:25;100426.25;;;21.62;48.20
50250;BME280;36133;42.522;27.456;2022-11-20T13:08:56;100560.25;;;22.55;48.01
50250;BME280;36133;42.522;27.456;2022-11-20T13:11:38;100646.59;;;23.16;47.67
50250;BME280;36133;42.522;27.456;2022-11-20T13:14:40;100833.88;;;23.99;48.16
50250;BME280;36133;42.522;27.456;2022-11-20T13:17:21;100704.19;;;23.43;47.82
50250;BME280;36133;42.522;27.456;2022-11-20T13:19:54;100663.06;;;23.11;48.05
50250;BME280;36133;42.522;27.456;2022-11-20T13:22:25;100410.25;;;21.49;47.92
50250;BME280;36133;42.522;27.456;2022-11-20T13:24:51;100658.69;;;23.20;47.35
50250;BME280;36133;42.522;27.456;2022-11-20T13:27:20;100455.75;;;21.82;47.29
50250;BME280;36133;42.522;27.456;2022-11-20T13:30:10;100802.41;;;24.05;47.17
50250;BME280;36133;42.522;27.456;2022-11-20T13:32:50;100662.53;;;23.04;47.27
50250;BME280;36133;42.522;27.456;2022-11-20T13:35:29;100644.00;;;22.89;47.07
50250;BME280;36133;42.522;27.456;2022-11-20T13:38:14;100702.31;;;23.59;46.60
50250;BME280;36133;42.522;27.456;2022-11-20T13:41:07;100514.97;;;22.10;47.03
50250;BME280;36133;42.522;27.456;2022-11-20T13:46:46;100378.38;;;21.05;47.03
50250;BME280;36133;42.522;27.456;2022-11-20T13:49:25;100283.72;;;20.61;46.88
50250;BME280;36133;42.522;27.456;2022-11-20T13:55:02;100770.16;;;24.11;46.36
50250;BME280;36133;42.522;27.456;2022-11-20T14:00:29;100730.16;;;23.93;45.88
50250;BME280;36133;42.522;27.456;2022-11-20T14:02:59;100789.75;;;24.40;45.80
50250;BME280;36133;42.522;27.456;2022-11-20T14:05:34;100609.94;;;23.10;45.52
50250;BME280;36133;42.522;27.456;2022-11-20T14:08:03;100473.00;;;22.35;45.27
50250;BME280;36133;42.522;27.456;2022-11-20T14:10:30;100454.38;;;21.84;45.74
50250;BME280;36133;42.522;27.456;2022-11-20T14:12:55;100487.94;;;21.97;46.14
50250;BME280;36133;42.522;27.456;2022-11-20T14:15:33;100804.91;;;24.07;45.98
50250;BME280;36133;42.522;27.456;2022-11-20T14:18:10;100262.88;;;20.60;46.25
50250;BME280;36133;42.522;27.456;2022-11-20T14:20:37;100368.97;;;21.33;46.08
50250;BME280;36133;42.522;27.456;2022-11-20T14:23:04;100564.06;;;22.43;46.32
50250;BME280;36133;42.522;27.456;2022-11-20T14:25:30;100792.16;;;23.70;46.54
50250;BME280;36133;42.522;27.456;2022-11-20T14:28:01;100633.66;;;23.17;45.66
50250;BME280;36133;42.522;27.456;2022-11-20T14:30:45;100798.28;;;23.87;46.58
50250;BME280;36133;42.522;27.456;2022-11-20T14:33:12;100803.19;;;23.65;46.98